createdAt,value
2022-12-27T00:00:21.065Z,20.03
2022-12-27T00:03:28.549Z,18.13
2022-12-27T00:06:34.588Z,14.20
2022-12-27T00:09:40.959Z,12.60
2022-12-27T00:12:46.909Z,18.33
2022-12-27T00:15:53.186Z,30.97
2022-12-27T00:19:01.015Z,21.10
2022-12-27T00:22:07.060Z,31.43
2022-12-27T00:25:13.687Z,16.37
2022-12-27T00:28:20.068Z,11.27
2022-12-27T00:31:27.729Z,7.93
2022-12-27T00:34:35.599Z,9.97
2022-12-27T00:37:42.049Z,14.80
2022-12-27T00:40:49.358Z,19.03
2022-12-27T00:43:55.268Z,39.00
2022-12-27T00:47:01.389Z,19.07
2022-12-27T00:50:09.981Z,21.53
2022-12-27T00:53:16.668Z,31.93
2022-12-27T00:56:25.076Z,24.97
2022-12-27T00:59:31.471Z,33.23
2022-12-27T01:02:37.643Z,34.00
2022-12-27T01:05:45.555Z,39.80
2022-12-27T01:08:52.196Z,34.20
2022-12-27T01:11:58.701Z,26.53
2022-12-27T01:15:06.592Z,38.17
2022-12-27T01:18:12.843Z,50.07
2022-12-27T01:21:23.015Z,38.33
2022-12-27T01:24:29.567Z,27.07
2022-12-27T01:27:35.859Z,28.97
2022-12-27T01:30:42.306Z,25.17
2022-12-27T01:33:48.833Z,30.37
2022-12-27T01:36:56.159Z,26.50
2022-12-27T01:40:02.214Z,32.10
2022-12-27T01:43:16.743Z,35.63
2022-12-27T01:46:23.662Z,25.00
2022-12-27T01:49:30.399Z,26.40
2022-12-27T01:52:42.237Z,19.30
2022-12-27T01:55:52.226Z,22.97
2022-12-27T01:59:03.328Z,22.67
2022-12-27T02:02:09.768Z,30.47
2022-12-27T02:05:17.711Z,32.53
2022-12-27T02:08:42.679Z,24.23
2022-12-27T02:11:52.915Z,19.53
2022-12-27T02:15:02.365Z,31.90
2022-12-27T02:18:08.961Z,31.20
2022-12-27T02:21:41.460Z,22.80
2022-12-27T02:25:15.298Z,25.27
2022-12-27T02:28:35.142Z,32.67
2022-12-27T02:31:49.412Z,17.63
2022-12-27T02:35:05.373Z,19.00
2022-12-27T02:38:16.796Z,29.00
2022-12-27T02:41:40.572Z,30.13
2022-12-27T02:45:12.882Z,36.97
2022-12-27T02:48:37.569Z,30.47
2022-12-27T02:52:12.719Z,25.83
2022-12-27T02:55:35.818Z,25.43
2022-12-27T02:58:55.879Z,25.73
2022-12-27T03:02:40.309Z,32.60
2022-12-27T03:06:22.824Z,21.17
2022-12-27T03:09:59.898Z,26.63
2022-12-27T03:13:51.828Z,26.70
2022-12-27T03:17:07.075Z,29.80
2022-12-27T03:20:34.714Z,42.50
2022-12-27T03:24:02.050Z,24.23
2022-12-27T03:27:18.329Z,34.47
2022-12-27T03:30:42.136Z,24.93
2022-12-27T03:33:50.729Z,27.97
2022-12-27T03:37:16.032Z,39.40
2022-12-27T03:40:34.758Z,54.80
2022-12-27T03:43:40.766Z,25.37
2022-12-27T03:46:47.831Z,26.27
2022-12-27T03:50:04.491Z,27.30
2022-12-27T03:53:17.164Z,37.27
2022-12-27T03:56:25.108Z,26.20
2022-12-27T03:59:31.869Z,41.57
2022-12-27T04:02:38.294Z,52.10
2022-12-27T04:05:44.518Z,38.00
2022-12-27T04:09:08.523Z,22.07
2022-12-27T04:12:33.385Z,41.67
2022-12-27T04:15:57.394Z,28.03
2022-12-27T04:19:21.381Z,41.20
2022-12-27T04:22:44.950Z,67.63
2022-12-27T04:26:08.806Z,47.13
2022-12-27T04:29:33.343Z,41.60
2022-12-27T04:32:57.023Z,51.60
2022-12-27T04:36:06.421Z,38.10
2022-12-27T04:39:12.849Z,41.23
2022-12-27T04:42:36.777Z,41.47
2022-12-27T04:46:01.947Z,43.77
2022-12-27T04:49:30.486Z,28.50
2022-12-27T04:52:54.452Z,35.17
2022-12-27T04:56:00.561Z,31.13
2022-12-27T04:59:24.556Z,34.17
2022-12-27T05:02:32.346Z,31.13
2022-12-27T05:05:40.374Z,27.67
2022-12-27T05:09:04.306Z,58.73
2022-12-27T05:12:29.036Z,32.23
2022-12-27T05:15:34.923Z,40.93
2022-12-27T05:18:42.602Z,40.13
2022-12-27T05:22:03.117Z,36.20
2022-12-27T05:25:30.007Z,47.47
2022-12-27T05:28:35.855Z,44.20
2022-12-27T05:31:42.242Z,49.50
2022-12-27T05:34:49.907Z,53.47
2022-12-27T05:37:56.309Z,57.20
2022-12-27T05:41:03.855Z,64.93
2022-12-27T05:44:09.977Z,45.50
2022-12-27T05:47:16.465Z,58.47
2022-12-27T05:50:24.199Z,30.73
2022-12-27T05:53:30.102Z,30.57
2022-12-27T05:56:37.457Z,22.90
2022-12-27T05:59:43.604Z,30.57
2022-12-27T06:02:50.225Z,25.77
2022-12-27T06:06:02.962Z,33.07
2022-12-27T06:09:08.830Z,26.00
2022-12-27T06:12:14.979Z,30.03
2022-12-27T06:15:21.299Z,23.93
2022-12-27T06:18:27.355Z,25.60
2022-12-27T06:21:35.624Z,35.37
2022-12-27T06:24:41.589Z,30.87
2022-12-27T06:27:47.681Z,31.77
2022-12-27T06:30:53.556Z,28.60
2022-12-27T06:33:59.508Z,22.47
2022-12-27T06:37:07.158Z,55.03
2022-12-27T06:40:13.608Z,122.40
2022-12-27T06:43:19.561Z,97.53
2022-12-27T06:46:26.365Z,63.07
2022-12-27T06:49:32.665Z,57.07
2022-12-27T06:52:40.457Z,49.40
2022-12-27T06:55:46.528Z,45.80
2022-12-27T06:58:53.117Z,34.53
2022-12-27T07:01:59.391Z,46.67
2022-12-27T07:05:06.652Z,51.07
2022-12-27T07:08:14.158Z,62.50
2022-12-27T07:11:22.419Z,55.80
2022-12-27T07:14:28.746Z,43.87
2022-12-27T07:17:36.195Z,77.73
2022-12-27T07:20:42.506Z,97.20
2022-12-27T07:23:50.452Z,85.00
2022-12-27T07:26:56.716Z,87.77
2022-12-27T07:30:03.039Z,49.07
2022-12-27T07:33:09.404Z,48.80
2022-12-27T07:36:18.365Z,57.57
2022-12-27T07:39:25.693Z,69.97
2022-12-27T07:42:31.654Z,74.20
2022-12-27T07:45:38.130Z,58.17
2022-12-27T07:48:44.425Z,43.03
2022-12-27T07:51:50.339Z,35.37
2022-12-27T07:54:57.866Z,26.50
2022-12-27T07:58:04.046Z,30.87
2022-12-27T08:01:11.151Z,32.30
2022-12-27T08:04:17.490Z,26.80
2022-12-27T08:07:23.960Z,30.10
2022-12-27T08:10:31.572Z,18.00
2022-12-27T08:13:37.807Z,21.10
2022-12-27T08:16:43.981Z,23.70
2022-12-27T08:19:52.896Z,16.70
2022-12-27T08:22:59.154Z,21.97
2022-12-27T08:26:07.355Z,13.90
2022-12-27T08:29:13.545Z,11.23
2022-12-27T08:32:19.663Z,20.07
2022-12-27T08:35:52.682Z,13.60
2022-12-27T08:38:55.512Z,20.53
2022-12-27T08:42:03.495Z,11.27
2022-12-27T08:45:10.635Z,69.17
2022-12-27T08:48:17.792Z,30.03
2022-12-27T08:51:34.465Z,22.73
2022-12-27T08:54:45.295Z,16.33
2022-12-27T08:57:57.000Z,18.47
2022-12-27T09:01:07.404Z,19.80
2022-12-27T09:04:13.690Z,33.47
2022-12-27T09:07:20.000Z,25.23
2022-12-27T09:10:26.560Z,23.03
2022-12-27T09:13:34.431Z,22.80
2022-12-27T09:16:40.965Z,49.83
2022-12-27T09:19:47.406Z,33.97
2022-12-27T09:22:53.640Z,32.73
2022-12-27T09:26:00.113Z,19.20
2022-12-27T09:29:08.226Z,11.77
2022-12-27T09:32:14.669Z,22.40
2022-12-27T09:35:21.167Z,12.63
2022-12-27T09:38:27.326Z,5.00
2022-12-27T09:42:45.001Z,3.60
2022-12-27T09:45:17.315Z,4.70
2022-12-27T09:48:32.995Z,5.23
2022-12-27T09:51:48.257Z,7.27
2022-12-27T09:55:04.717Z,5.33
2022-12-27T09:58:25.326Z,4.73
2022-12-27T10:01:35.314Z,5.90
2022-12-27T10:05:17.937Z,7.10
2022-12-27T10:08:27.332Z,2.37
2022-12-27T10:11:45.260Z,6.23
2022-12-27T10:15:04.534Z,6.77
2022-12-27T10:18:23.715Z,3.93
2022-12-27T10:21:33.666Z,4.23
2022-12-27T10:24:42.562Z,6.90
2022-12-27T10:27:49.256Z,7.60
2022-12-27T10:30:55.419Z,8.63
2022-12-27T10:34:07.593Z,18.53
2022-12-27T10:37:17.824Z,29.40
2022-12-27T10:40:34.204Z,31.47
2022-12-27T10:43:43.779Z,15.13
2022-12-27T10:46:54.128Z,5.80
2022-12-27T10:50:13.732Z,13.07
2022-12-27T10:53:36.018Z,18.30
2022-12-27T10:56:44.419Z,6.00
2022-12-27T11:00:15.031Z,6.70
2022-12-27T11:03:21.687Z,6.67
2022-12-27T11:06:29.217Z,8.10
2022-12-27T11:09:37.376Z,4.43
2022-12-27T11:12:57.087Z,3.93
2022-12-27T11:16:03.455Z,3.50
2022-12-27T11:19:23.738Z,3.97
2022-12-27T11:22:31.505Z,6.23
2022-12-27T11:25:48.026Z,3.30
2022-12-27T11:28:57.219Z,17.63
2022-12-27T11:32:08.704Z,60.83
2022-12-27T11:35:19.596Z,33.37
2022-12-27T11:38:30.699Z,9.87
2022-12-27T11:41:44.293Z,12.97
2022-12-27T11:45:01.939Z,2.53
2022-12-27T11:48:19.822Z,3.43
2022-12-27T11:52:01.928Z,3.17
2022-12-27T11:55:46.879Z,5.13
2022-12-27T11:59:32.150Z,3.30
2022-12-27T12:03:26.972Z,4.03
2022-12-27T12:06:45.393Z,4.17
2022-12-27T12:10:08.466Z,3.83
2022-12-27T12:13:47.426Z,3.50
2022-12-27T12:17:11.872Z,2.77
2022-12-27T12:20:45.634Z,2.57
2022-12-27T12:24:27.944Z,2.43
2022-12-27T12:27:54.737Z,4.40
2022-12-27T12:31:15.501Z,4.10
2022-12-27T12:34:39.484Z,6.50
2022-12-27T12:38:03.591Z,26.50
2022-12-27T12:41:27.046Z,6.43
2022-12-27T12:45:16.762Z,28.23
2022-12-27T12:48:50.665Z,38.70
2022-12-27T12:52:11.710Z,46.40
2022-12-27T12:55:39.839Z,35.17
2022-12-27T12:59:02.306Z,19.97
2022-12-27T13:02:35.373Z,6.57
2022-12-27T13:05:49.171Z,13.33
2022-12-27T13:09:04.622Z,4.83
2022-12-27T13:12:15.308Z,17.23
2022-12-27T13:15:30.540Z,5.10
2022-12-27T13:18:50.300Z,7.03
2022-12-27T13:22:09.742Z,10.30
2022-12-27T13:25:25.576Z,4.37
2022-12-27T13:28:43.045Z,9.10
2022-12-27T13:31:59.366Z,9.80
2022-12-27T13:35:24.081Z,7.40
2022-12-27T13:38:43.604Z,12.13
2022-12-27T13:42:00.960Z,7.30
2022-12-27T13:45:23.248Z,12.53
2022-12-27T13:48:57.867Z,7.33
2022-12-27T13:52:18.172Z,3.87
2022-12-27T13:55:54.612Z,5.93
2022-12-27T13:59:28.087Z,21.23
2022-12-27T14:03:11.083Z,10.73
2022-12-27T14:06:51.670Z,14.13
2022-12-27T14:10:12.401Z,10.07
2022-12-27T14:13:25.761Z,11.00
2022-12-27T14:16:45.176Z,10.03
2022-12-27T14:20:18.214Z,18.67
2022-12-27T14:23:49.260Z,21.47
2022-12-27T14:27:43.281Z,19.10
2022-12-27T14:31:31.622Z,18.07
2022-12-27T14:35:17.399Z,19.50
2022-12-27T14:39:01.989Z,17.77
2022-12-27T14:42:37.544Z,7.37
2022-12-27T14:46:32.738Z,10.47
2022-12-27T14:50:25.799Z,14.83
2022-12-27T14:54:06.939Z,22.43
2022-12-27T14:57:26.214Z,17.70
2022-12-27T15:01:06.611Z,12.53
2022-12-27T15:04:38.692Z,15.17
2022-12-27T15:08:08.917Z,21.90
2022-12-27T15:11:28.450Z,17.13
2022-12-27T15:14:50.343Z,12.33
2022-12-27T15:18:10.525Z,16.87
2022-12-27T15:21:39.885Z,22.83
2022-12-27T15:24:59.666Z,20.23
2022-12-27T15:28:17.406Z,23.77
2022-12-27T15:31:33.014Z,25.37
2022-12-27T15:34:51.040Z,25.13
2022-12-27T15:38:11.855Z,32.13
2022-12-27T15:41:52.139Z,29.87
2022-12-27T15:45:05.702Z,22.80
2022-12-27T15:48:59.575Z,79.33
2022-12-27T15:52:14.859Z,95.93
2022-12-27T15:55:33.746Z,72.93
2022-12-27T15:58:42.316Z,84.70
2022-12-27T16:01:50.409Z,62.53
2022-12-27T16:04:59.098Z,52.93
2022-12-27T16:08:32.011Z,61.47
2022-12-27T16:12:00.756Z,57.53
2022-12-27T16:15:41.216Z,58.27
2022-12-27T16:19:19.355Z,48.53
2022-12-27T16:22:34.028Z,36.27
2022-12-27T16:25:42.468Z,29.97
2022-12-27T16:28:55.598Z,38.07
2022-12-27T16:32:20.759Z,45.47
2022-12-27T16:35:30.349Z,57.97
2022-12-27T16:38:39.687Z,64.43
2022-12-27T16:42:07.282Z,50.13
2022-12-27T16:45:34.920Z,53.90
2022-12-27T16:49:00.065Z,55.57
2022-12-27T16:52:34.764Z,63.73
2022-12-27T16:56:03.907Z,26.87
2022-12-27T16:59:43.637Z,28.40
2022-12-27T17:02:50.365Z,42.73
2022-12-27T17:06:30.795Z,46.30
2022-12-27T17:09:45.242Z,73.73
2022-12-27T17:12:54.981Z,77.30
2022-12-27T17:16:08.819Z,81.87
2022-12-27T17:19:21.164Z,102.87
2022-12-27T17:22:34.574Z,163.80
2022-12-27T17:25:49.263Z,173.57
2022-12-27T17:29:06.011Z,131.97
2022-12-27T17:32:26.253Z,154.17
2022-12-27T17:35:40.039Z,129.43
2022-12-27T17:39:04.442Z,148.73
2022-12-27T17:42:39.443Z,159.10
2022-12-27T17:45:51.824Z,143.83
2022-12-27T17:48:59.220Z,153.07
2022-12-27T17:52:23.302Z,154.97
2022-12-27T17:55:48.387Z,150.10
2022-12-27T17:59:03.609Z,155.40
2022-12-27T18:02:18.213Z,117.27
2022-12-27T18:05:29.006Z,133.60
2022-12-27T18:08:36.238Z,142.97
2022-12-27T18:11:44.394Z,152.83
2022-12-27T18:14:56.921Z,165.53
2022-12-27T18:18:05.480Z,136.60
2022-12-27T18:21:23.516Z,144.27
2022-12-27T18:24:32.284Z,123.97
2022-12-27T18:27:40.351Z,119.40
2022-12-27T18:30:52.599Z,111.80
2022-12-27T18:34:03.499Z,98.53
2022-12-27T18:37:12.974Z,88.97
2022-12-27T18:40:21.623Z,76.13
2022-12-27T18:43:29.991Z,99.60
2022-12-27T18:46:39.420Z,86.93
2022-12-27T18:49:46.456Z,68.83
2022-12-27T18:53:03.343Z,69.43
2022-12-27T18:56:27.184Z,76.43
2022-12-27T18:59:36.363Z,59.33
2022-12-27T19:02:43.616Z,70.33
2022-12-27T19:06:14.268Z,72.80
2022-12-27T19:09:22.425Z,95.00
2022-12-27T19:12:34.603Z,135.57
2022-12-27T19:15:45.294Z,76.67
2022-12-27T19:18:54.632Z,53.97
2022-12-27T19:22:01.192Z,65.17
2022-12-27T19:25:21.838Z,90.17
2022-12-27T19:28:29.944Z,91.57
2022-12-27T19:31:41.355Z,99.27
2022-12-27T19:34:50.306Z,98.87
2022-12-27T19:37:57.419Z,83.40
2022-12-27T19:41:05.009Z,95.97
2022-12-27T19:44:12.736Z,109.00
2022-12-27T19:47:20.254Z,106.07
2022-12-27T19:50:26.704Z,105.07
2022-12-27T19:53:35.949Z,100.33
2022-12-27T19:56:42.099Z,88.13
2022-12-27T19:59:48.737Z,91.77
2022-12-27T20:02:56.329Z,87.03
2022-12-27T20:06:14.194Z,67.37
2022-12-27T20:09:27.344Z,65.30
2022-12-27T20:12:33.631Z,76.77
2022-12-27T20:15:40.165Z,70.80
2022-12-27T20:18:48.143Z,78.23
2022-12-27T20:21:54.515Z,79.53
2022-12-27T20:25:01.077Z,73.50
2022-12-27T20:28:07.272Z,102.27
2022-12-27T20:31:15.870Z,114.50
2022-12-27T20:34:23.859Z,136.10
2022-12-27T20:37:29.993Z,142.87
2022-12-27T20:40:36.047Z,117.17
2022-12-27T20:43:42.635Z,121.77
2022-12-27T20:46:50.041Z,110.37
2022-12-27T20:49:57.471Z,89.37
2022-12-27T20:53:03.874Z,61.53
2022-12-27T20:56:11.162Z,64.90
2022-12-27T20:59:17.237Z,80.37
2022-12-27T21:02:23.793Z,86.03
2022-12-27T21:05:31.453Z,78.87
2022-12-27T21:08:45.479Z,65.23
2022-12-27T21:11:53.958Z,91.40
2022-12-27T21:15:00.246Z,65.93
2022-12-27T21:18:07.533Z,66.00
2022-12-27T21:21:19.616Z,57.17
2022-12-27T21:24:26.403Z,66.33
2022-12-27T21:27:32.595Z,65.47
2022-12-27T21:30:38.797Z,61.83
2022-12-27T21:33:45.150Z,67.37
2022-12-27T21:36:53.254Z,84.20
2022-12-27T21:39:59.588Z,79.13
2022-12-27T21:43:05.702Z,66.80
2022-12-27T21:46:15.635Z,41.43
2022-12-27T21:49:22.023Z,43.57
2022-12-27T21:52:30.143Z,47.73
2022-12-27T21:55:36.225Z,49.53
2022-12-27T21:58:43.563Z,76.27
2022-12-27T22:01:51.478Z,70.97
2022-12-27T22:04:58.761Z,69.13
2022-12-27T22:08:06.841Z,55.47
2022-12-27T22:11:13.978Z,45.87
2022-12-27T22:14:25.255Z,58.67
2022-12-27T22:17:31.836Z,64.63
2022-12-27T22:20:41.999Z,43.20
2022-12-27T22:23:55.860Z,45.57
2022-12-27T22:27:02.010Z,46.50
2022-12-27T22:30:08.801Z,43.70
2022-12-27T22:33:16.426Z,53.37
2022-12-27T22:36:25.043Z,59.60
2022-12-27T22:39:32.754Z,33.33
2022-12-27T22:42:39.059Z,44.27
2022-12-27T22:45:50.309Z,51.23
2022-12-27T22:49:01.276Z,41.10
2022-12-27T22:52:07.567Z,36.77
2022-12-27T22:55:16.319Z,41.33
2022-12-27T22:58:22.824Z,43.27
2022-12-27T23:01:31.013Z,35.47
2022-12-27T23:04:37.383Z,45.20
2022-12-27T23:08:06.057Z,58.73
2022-12-27T23:11:14.602Z,119.70
2022-12-27T23:14:21.134Z,112.73
2022-12-27T23:17:27.295Z,55.83
2022-12-27T23:20:35.296Z,42.30
2022-12-27T23:23:42.115Z,29.20
2022-12-27T23:26:49.713Z,25.17
2022-12-27T23:29:56.075Z,34.83
2022-12-27T23:33:02.419Z,29.97
2022-12-27T23:36:09.144Z,37.77
2022-12-27T23:39:15.344Z,27.83
2022-12-27T23:42:23.223Z,40.33
2022-12-27T23:45:29.547Z,24.87
2022-12-27T23:48:36.179Z,38.30
2022-12-27T23:51:42.634Z,36.07
2022-12-27T23:54:48.607Z,25.73
2022-12-27T23:57:56.139Z,27.57
